Allen, Maryland
Current Conditions -  °F | °C
As of 10:54 AM on Thursday 27 Nov 2014 (Local Time) from KSBY Reporting Station
Broken Clouds Broken Clouds  
Wind Chill:   Ceiling: 6000
Heat Index:   Visibility: 10mi
Dew Point:   Wind: 7mph
Humidity: 63%   Direction: 310°NW
Pressure: 30.05"   Gusts: NA
Location:  38.29°N, 75.69°W
Report Text: KSBY 271554Z 31006KT 10SM BKN060 BKN085 07/01 A3005 RMK AO2 SLP178 T00720006
Loading
Personal Weather Stations






























Interactive Weather Map New forecast layout! Learn more

10-Day Weather Forecast

Advertisements
Track Severe Weather on mobile